Tuscaloosa Regional Airport
KTCL : now visible

Airfield :











YOU CAN JOIN US ON...

 
LOGIN :

Register | Disclaimer

   EN    FR    IT 

 









Legend :    VFR   Marginal VFR   IFR   Intensive IFR   Very Intensive IFR
Visi :
Ceiling :
>= 8 km
>= 3000ft
5 to 8 km
1000 to 3000 ft
1500m to 5 km
500 to 1000 ft
800 to 1500m
200 to 500 ft
< 800m
< 200 ft
Symbols :   Thunderstorms  Fog  Heavy snow  Heavy precipitations  Wind > 20 kt







- Airport Elevation : 170 ft
- IATA code : TCL


KTCL - Tuscaloosa Regional

CURRENT METAR :
  • 192253Z 23004KT 10SM BKN100 26/21 A2995 RMK AO2 SLP140 T02560211

EXPIRED METARs :
  • 192153Z 23005KT 10SM BKN085 28/19 A2995 RMK AO2 SLP139 T02780194
  • 192053Z 23006KT 10SM BKN044 BKN050 OVC100 28/19 A2995 RMK AO2 SLP140 T02830189 58004

TAF KTCL
Valid from the 19 at 18:00 until the 20 at 18:00 UTC


191742Z 1918/2018 20013G18KT P6SM SCT030 BKN250
TEMPO 1920/1924 -SHRA BKN050 OVC100
FM200000 20006KT P6SM OVC100
FM201000 00000KT P6SM OVC015
FM201600 26003KT P6SM BKN050
KZTL FIR / North America



MET'MAP, your aeronautical weather chart ! - Copyright ORBIFLY December 2007 - Disclaimer

ORBIFLY MET'MAP TEAM :

Programming & Development : Alexandra Zaïnal
Concept & Development : Baudouin d'Aumeries
Co-Development & Prog : Marc-Olivier Méhu
Technical & hardware support : Manuel Goepfert

Contact : metmap@orbifly.com




SOURCES & CREDITS :

   NOAA       Earth
Advisory